Time;durP1;ratioP1;P1;durP2;ratioP2;P2;SDS_P1;SDS_P2;PMS_P1;PMS_P2;Temp;Humidity;BMP_temperature;BMP_pressure;BME280_temperature;BME280_humidity;BME280_pressure;Samples;Min_cycle;Max_cycle;Signal;HPM_P1;HPM_P2
2022/12/16 00:01:10;;;;;;;37.97;24.77;;;-7.10;1.00;;;;;;5039546;28;20499;-59
2022/12/16 00:03:37;;;;;;;44.00;26.50;;;-7.10;1.00;;;;;;5040235;28;20463;-61
2022/12/16 00:06:05;;;;;;;43.40;27.40;;;-7.10;1.00;;;;;;5057611;28;20503;-58
2022/12/16 00:08:34;;;;;;;43.60;28.20;;;-7.10;1.00;;;;;;5059910;28;20468;-61
2022/12/16 00:11:02;;;;;;;39.67;25.80;;;-7.20;1.00;;;;;;5060067;28;20549;-58
2022/12/16 00:13:31;;;;;;;49.50;27.77;;;-7.30;1.00;;;;;;5059238;28;20465;-61
2022/12/16 00:15:58;;;;;;;38.17;25.60;;;-7.50;1.00;;;;;;5059342;28;20466;-61
2022/12/16 00:18:27;;;;;;;39.73;26.23;;;-7.40;1.00;;;;;;5059480;28;20446;-61
2022/12/16 00:20:55;;;;;;;41.50;25.80;;;-7.50;1.00;;;;;;5059022;28;20465;-61
2022/12/16 00:23:23;;;;;;;36.33;23.80;;;-7.50;1.00;;;;;;5059554;28;20899;-59
2022/12/16 00:25:50;;;;;;;38.60;26.00;;;-7.50;1.00;;;;;;5059258;28;20448;-61
2022/12/16 00:28:22;;;;;;;44.07;26.60;;;-7.50;1.00;;;;;;5059478;28;20886;-60
2022/12/16 00:30:50;;;;;;;39.10;25.23;;;-7.60;1.00;;;;;;5058108;28;20462;-61
2022/12/16 00:33:18;;;;;;;40.70;25.10;;;-7.60;1.00;;;;;;5058525;28;20560;-59
2022/12/16 00:35:47;;;;;;;39.50;25.00;;;-7.60;1.00;;;;;;5058728;28;20524;-61
2022/12/16 00:38:15;;;;;;;41.57;26.60;;;-7.70;1.00;;;;;;5058840;28;20895;-60
2022/12/16 00:40:43;;;;;;;40.70;26.73;;;-7.60;1.00;;;;;;5058748;28;20467;-61
2022/12/16 00:43:10;;;;;;;46.17;27.60;;;-7.60;1.00;;;;;;5059099;28;20465;-59
2022/12/16 00:45:38;;;;;;;44.07;28.50;;;-7.60;1.00;;;;;;5058927;28;20443;-59
2022/12/16 00:48:06;;;;;;;45.63;28.43;;;-7.60;1.00;;;;;;5058797;28;20544;-61
2022/12/16 00:50:33;;;;;;;44.70;27.40;;;-7.60;1.00;;;;;;5059114;28;20522;-61
2022/12/16 00:53:02;;;;;;;41.33;27.93;;;-7.60;1.00;;;;;;5058091;28;20959;-57
2022/12/16 00:55:29;;;;;;;47.87;29.00;;;-7.70;1.00;;;;;;5058707;28;20463;-58
2022/12/16 00:57:56;;;;;;;49.10;28.00;;;-7.70;1.00;;;;;;5058671;28;20536;-61
2022/12/16 01:00:24;;;;;;;40.43;26.10;;;-7.80;1.00;;;;;;5058614;28;20784;-60
2022/12/16 01:02:52;;;;;;;41.73;28.43;;;-7.80;1.00;;;;;;5058139;28;20501;-60
2022/12/16 01:05:25;;;;;;;46.87;27.93;;;-7.80;1.00;;;;;;5058366;28;20595;-59
2022/12/16 01:07:52;;;;;;;43.27;28.47;;;-7.80;1.00;;;;;;5058353;28;20562;-61
2022/12/16 01:10:21;;;;;;;42.43;26.53;;;-7.70;1.00;;;;;;5058813;28;20481;-59
2022/12/16 01:12:49;;;;;;;41.63;25.70;;;-7.70;1.00;;;;;;5057433;28;20436;-60
2022/12/16 01:15:17;;;;;;;39.23;24.07;;;-7.80;1.00;;;;;;5058377;28;20488;-59
2022/12/16 01:17:44;;;;;;;41.83;23.50;;;-7.90;1.00;;;;;;5058234;28;20438;-58
2022/12/16 01:20:13;;;;;;;35.47;22.60;;;-7.80;1.00;;;;;;5057622;28;20957;-60
2022/12/16 01:22:40;;;;;;;38.80;22.40;;;-7.90;1.00;;;;;;5058144;28;20471;-60
2022/12/16 01:25:09;;;;;;;41.90;24.03;;;-7.90;1.00;;;;;;5058318;28;20485;-61
2022/12/16 01:27:38;;;;;;;32.53;22.20;;;-7.80;1.00;;;;;;5058123;28;20504;-61
2022/12/16 01:30:07;;;;;;;38.17;22.80;;;-7.90;1.00;;;;;;5058224;28;20464;-59
2022/12/16 01:32:35;;;;;;;39.40;24.23;;;-8.00;1.00;;;;;;5058162;28;20468;-57
2022/12/16 01:35:02;;;;;;;39.80;24.87;;;-7.90;1.00;;;;;;5057845;28;20550;-59
2022/12/16 01:37:29;;;;;;;36.57;22.97;;;-8.00;1.00;;;;;;5057979;28;20552;-61
2022/12/16 01:39:56;;;;;;;33.80;21.87;;;-7.90;1.00;;;;;;5057370;28;20466;-58
2022/12/16 01:42:27;;;;;;;32.23;22.50;;;-8.00;1.00;;;;;;5057922;28;20469;-61
2022/12/16 01:44:56;;;;;;;35.00;22.10;;;-8.00;1.00;;;;;;5057428;28;20550;-61
2022/12/16 01:47:27;;;;;;;37.83;23.50;;;-7.90;1.00;;;;;;5058038;28;20450;-61
2022/12/16 01:49:59;;;;;;;36.30;23.30;;;-8.00;1.00;;;;;;5058060;28;20466;-59
2022/12/16 01:52:30;;;;;;;38.03;22.90;;;-8.10;1.00;;;;;;5058035;28;20459;-57
2022/12/16 01:55:01;;;;;;;32.60;20.93;;;-8.00;1.00;;;;;;5057661;28;20789;-58
2022/12/16 01:57:34;;;;;;;37.03;21.50;;;-8.00;1.00;;;;;;5057574;28;20548;-60
2022/12/16 02:00:06;;;;;;;35.07;21.10;;;-8.00;1.00;;;;;;5057540;28;20448;-58
2022/12/16 02:02:33;;;;;;;33.50;21.10;;;-8.00;1.00;;;;;;5057726;28;21029;-60
2022/12/16 02:07:56;;;;;;;35.00;21.50;;;-8.20;1.00;;;;;;5057286;28;20878;-60
2022/12/16 02:10:36;;;;;;;39.77;22.37;;;-8.20;1.00;;;;;;5043985;28;20524;-61
2022/12/16 02:13:11;;;;;;;37.13;22.37;;;-8.10;1.00;;;;;;5037559;28;20507;-61
2022/12/16 02:15:45;;;;;;;34.93;21.43;;;-8.10;1.00;;;;;;5037552;28;20982;-56
2022/12/16 02:18:22;;;;;;;38.17;22.80;;;-8.10;1.00;;;;;;5037641;28;20484;-61
2022/12/16 02:21:13;;;;;;;32.13;21.30;;;-8.20;1.00;;;;;;5037217;28;20893;-56
2022/12/16 02:24:10;;;;;;;38.00;22.83;;;-8.20;1.00;;;;;;5037393;28;20822;-59
2022/12/16 02:27:15;;;;;;;35.23;22.30;;;-8.10;1.00;;;;;;5037852;28;20549;-60
2022/12/16 02:30:11;;;;;;;35.23;19.90;;;-8.20;1.00;;;;;;5007761;28;20492;-59
2022/12/16 02:32:52;;;;;;;33.57;21.00;;;-8.30;1.00;;;;;;5037496;28;20438;-61
2022/12/16 02:35:27;;;;;;;33.00;21.30;;;-8.20;1.00;;;;;;5037344;28;20468;-60
2022/12/16 02:38:08;;;;;;;35.40;20.77;;;-8.20;1.00;;;;;;5037335;28;20808;-56
2022/12/16 02:40:41;;;;;;;32.87;21.90;;;-8.20;1.00;;;;;;5037789;28;20441;-57
2022/12/16 02:43:15;;;;;;;39.07;20.23;;;-8.20;1.00;;;;;;5036871;28;20483;-61
2022/12/16 02:45:43;;;;;;;32.30;18.80;;;-8.30;1.00;;;;;;5037130;28;20442;-57
2022/12/16 02:48:12;;;;;;;31.43;20.53;;;-8.20;1.00;;;;;;5037285;28;20470;-61
2022/12/16 02:50:44;;;;;;;34.63;21.60;;;-8.30;1.00;;;;;;5037288;28;20811;-60
2022/12/16 02:53:12;;;;;;;30.83;20.43;;;-8.30;1.00;;;;;;5036847;28;20560;-58
2022/12/16 02:55:53;;;;;;;32.10;21.47;;;-8.30;1.00;;;;;;5037192;28;20903;-54
2022/12/16 02:58:28;;;;;;;40.17;21.97;;;-8.30;1.00;;;;;;5037058;28;20497;-61
2022/12/16 03:01:03;;;;;;;33.70;21.20;;;-8.30;1.00;;;;;;5036725;28;20751;-57
2022/12/16 03:03:40;;;;;;;29.60;19.47;;;-8.30;1.00;;;;;;5037330;28;20792;-59
2022/12/16 03:06:09;;;;;;;25.87;17.67;;;-8.30;1.00;;;;;;5036832;28;20597;-59
2022/12/16 03:08:42;;;;;;;28.57;19.83;;;-8.30;1.00;;;;;;5037374;28;20466;-57
2022/12/16 03:11:09;;;;;;;32.90;21.40;;;-8.30;1.00;;;;;;5036843;28;20438;-59
2022/12/16 03:13:41;;;;;;;35.40;20.93;;;-8.40;1.00;;;;;;5037129;28;20442;-56
2022/12/16 03:16:12;;;;;;;30.20;19.63;;;-8.50;1.00;;;;;;5039826;28;20452;-59
2022/12/16 03:18:44;;;;;;;34.20;20.90;;;-8.50;1.00;;;;;;5040815;28;20567;-60
2022/12/16 03:21:14;;;;;;;34.17;19.83;;;-8.60;1.00;;;;;;5040779;28;20542;-60
2022/12/16 03:23:50;;;;;;;34.07;22.00;;;-8.60;1.00;;;;;;5040507;28;20590;-60
2022/12/16 03:26:24;;;;;;;30.60;20.43;;;-8.60;1.00;;;;;;5040087;28;20439;-59
2022/12/16 03:28:55;;;;;;;30.53;18.80;;;-8.70;1.00;;;;;;5040054;28;20441;-59
2022/12/16 03:31:31;;;;;;;33.10;20.53;;;-8.70;1.00;;;;;;5039915;28;20483;-61
2022/12/16 03:34:07;;;;;;;28.80;18.83;;;-8.60;1.00;;;;;;5040856;28;20467;-59
2022/12/16 03:36:36;;;;;;;32.80;20.57;;;-8.60;1.00;;;;;;5040144;28;20941;-57
2022/12/16 03:39:06;;;;;;;31.70;20.30;;;-8.60;1.00;;;;;;5039913;28;20465;-60
2022/12/16 03:41:34;;;;;;;30.80;21.03;;;-8.70;1.00;;;;;;5040138;28;20499;-60
2022/12/16 03:44:02;;;;;;;33.43;20.23;;;-8.70;1.00;;;;;;5040323;28;20503;-59
2022/12/16 03:46:29;;;;;;;33.53;20.07;;;-8.60;1.00;;;;;;5040184;28;20567;-60
2022/12/16 03:48:56;;;;;;;34.07;21.07;;;-8.60;1.00;;;;;;5040289;28;20499;-60
2022/12/16 03:51:25;;;;;;;31.83;19.03;;;-8.60;1.00;;;;;;5039632;28;20508;-57
2022/12/16 03:53:52;;;;;;;28.10;19.97;;;-8.60;1.00;;;;;;5040013;28;20572;-61
2022/12/16 03:56:20;;;;;;;35.40;21.27;;;-8.80;1.00;;;;;;5040174;28;20504;-61
2022/12/16 03:58:47;;;;;;;33.40;20.60;;;-8.70;1.00;;;;;;5039462;28;20573;-60
2022/12/16 04:01:14;;;;;;;35.30;21.00;;;-8.70;1.00;;;;;;5039429;28;20464;-61
2022/12/16 04:03:42;;;;;;;33.80;19.83;;;-8.90;1.00;;;;;;5039852;28;20499;-60
2022/12/16 04:06:09;;;;;;;36.63;21.90;;;-8.80;1.00;;;;;;5039753;28;20517;-59
2022/12/16 04:08:38;;;;;;;34.07;20.57;;;-8.80;1.00;;;;;;5040140;28;20442;-60
2022/12/16 04:25:05;;;;;;;32.80;20.30;;;-8.80;1.00;;;;;;5039127;28;20440;-55
2022/12/16 04:27:32;;;;;;;34.93;23.40;;;-8.70;1.00;;;;;;5038428;28;20564;-55
